EST,Max TemperatureF,Mean TemperatureF,Min TemperatureF,Max Dew PointF,MeanDew PointF,Min DewpointF,Max Humidity, Mean Humidity, Min Humidity, Max Sea Level PressureIn, Mean Sea Level PressureIn, Min Sea Level PressureIn, Max VisibilityMiles, Mean VisibilityMiles, Min VisibilityMiles, Max Wind SpeedMPH, Mean Wind SpeedMPH, Max Gust SpeedMPH,PrecipitationIn, CloudCover, Events, WindDirDegrees
2013-1-1,33,28,22,27,20,10,80,68,54,30.00,29.94,29.87,10,10,7,20,11,28,0.00,8,,284
2013-1-2,39,28,17,12,10,9,73,63,33,30.18,30.07,29.98,10,10,6,14,7,,0.00,4,Snow,271
2013-1-3,30,20,10,19,13,7,92,67,50,30.16,30.11,30.04,10,10,1,17,6,23,0.00,4,,248
2013-1-4,30,28,26,19,18,16,74,64,59,30.10,30.06,30.00,10,10,7,25,17,34,0.00,4,Snow,260
2013-1-5,32,28,25,21,19,16,79,70,60,30.36,30.18,30.08,10,10,7,23,12,30,0.00,6,,267
2013-1-6,37,32,26,29,24,20,81,73,60,30.11,30.05,29.95,10,10,7,15,5,21,0.04,8,Snow,251
2013-1-7,35,30,25,28,24,20,83,76,65,30.37,30.27,30.10,10,10,7,13,9,17,0.02,5,,264
2013-1-8,42,30,19,23,21,18,93,75,42,30.34,30.31,30.27,10,9,3,8,4,,0.00,0,,238
2013-1-9,44,32,19,34,25,18,93,75,54,30.34,30.27,30.14,10,8,4,24,5,31,0.00,1,,242
2013-1-10,41,36,32,26,25,23,76,64,53,30.57,30.46,30.35,10,10,10,17,7,29,0.00,2,,288
2013-1-11,39,36,32,34,28,24,100,75,57,30.43,30.24,30.05,10,7,1,12,2,,0.00,7,Rain,220
2013-1-12,42,38,33,41,35,33,100,97,87,30.13,30.09,30.05,5,1,0,7,2,,0.00,7,Fog,249
2013-1-13,46,40,33,46,38,32,100,98,93,30.07,29.98,29.92,7,1,0,7,1,,0.00,8,Fog,297
2013-1-14,48,40,32,48,34,21,98,79,49,30.30,30.11,29.90,10,7,0,17,5,,0.07,7,Rain,286
2013-1-15,32,29,26,27,23,21,96,74,64,30.34,30.23,30.13,10,8,1,5,2,,0.00,5,Snow,21
2013-1-16,33,30,28,32,28,25,100,92,80,30.12,29.96,29.84,10,5,1,12,3,,0.00,6,Snow,215
2013-1-17,33,32,30,27,25,23,80,74,69,30.12,30.01,29.92,10,10,7,16,8,22,0.00,5,,251
2013-1-18,31,25,19,23,10,3,71,54,40,30.41,30.24,30.03,10,10,5,21,13,30,0.00,3,Snow,284
2013-1-19,50,36,23,18,11,5,53,36,24,30.23,30.05,29.79,10,10,10,20,8,30,0.00,3,,237
2013-1-20,44,32,19,27,17,6,58,47,31,30.07,29.85,29.66,10,10,10,29,14,46,0.00,2,,254
2013-1-21,24,18,12,19,9,0,86,66,55,30.04,29.95,29.82,10,8,2,20,6,28,0.00,5,Snow,235
2013-1-22,12,8,5,2,-2,-8,73,62,44,30.17,30.04,29.89,10,9,2,21,13,31,0.00,4,Snow,268
2013-1-23,15,10,4,0,-2,-4,74,64,41,30.19,30.13,30.05,10,10,7,18,10,20,0.00,3,,257
2013-1-24,21,13,5,5,1,-6,85,66,36,30.44,30.21,30.02,10,8,2,17,2,28,0.00,5,Snow,310
2013-1-25,14,10,7,9,3,-3,88,72,49,30.43,30.22,29.98,10,7,2,6,1,,0.00,4,Snow,186
2013-1-26,24,17,10,19,13,8,93,82,64,30.36,30.15,30.01,10,6,2,6,0,,0.00,8,Snow,297
2013-1-27,30,22,14,14,12,9,79,64,44,30.51,30.42,30.37,10,10,10,9,3,,0.00,4,,241
2013-1-28,42,33,24,42,27,14,100,88,56,30.37,30.17,29.97,10,3,0,10,2,,0.03,8,Fog-Rain-Snow,220
2013-1-29,45,38,32,45,39,32,100,98,93,30.06,29.99,29.89,5,1,0,6,3,,0.01,8,Fog,234
2013-1-30,59,45,31,54,43,31,100,96,82,29.90,29.60,29.18,10,5,0,17,3,,0.24,7,Fog-Rain,200
2013-1-31,51,36,21,50,25,9,92,75,54,29.76,29.48,29.15,10,7,0,36,18,51,0.09,8,Rain-Snow,260